createdAt,value
2023-05-06T00:02:04.337Z,1.73
2023-05-06T00:04:31.198Z,2.07
2023-05-06T00:06:58.021Z,1.60
2023-05-06T00:09:24.767Z,1.50
2023-05-06T00:11:51.568Z,1.57
2023-05-06T00:14:18.271Z,1.67
2023-05-06T00:16:45.157Z,1.53
2023-05-06T00:19:12.492Z,1.30
2023-05-06T00:21:39.303Z,1.60
2023-05-06T00:24:06.205Z,1.40
2023-05-06T00:26:32.893Z,1.60
2023-05-06T00:28:59.538Z,2.60
2023-05-06T00:31:26.187Z,2.70
2023-05-06T00:33:52.888Z,2.70
2023-05-06T00:36:19.619Z,1.80
2023-05-06T00:38:46.258Z,1.87
2023-05-06T00:41:12.898Z,1.83
2023-05-06T00:43:39.576Z,1.60
2023-05-06T00:46:09.399Z,1.40
2023-05-06T00:48:36.308Z,1.40
2023-05-06T00:51:03.103Z,1.50
2023-05-06T00:53:30.335Z,1.30
2023-05-06T00:55:57.571Z,2.00
2023-05-06T00:58:24.152Z,1.57
2023-05-06T01:00:52.134Z,1.77
2023-05-06T01:03:19.282Z,1.77
2023-05-06T01:06:17.727Z,1.70
2023-05-06T01:08:58.669Z,1.80
2023-05-06T01:11:43.820Z,1.80
2023-05-06T01:14:28.368Z,1.70
2023-05-06T01:16:58.199Z,1.70
2023-05-06T01:19:46.528Z,1.50
2023-05-06T01:22:15.576Z,1.63
2023-05-06T01:24:44.488Z,1.60
2023-05-06T01:27:13.276Z,1.80
2023-05-06T01:29:43.060Z,1.80
2023-05-06T01:32:15.845Z,1.93
2023-05-06T01:34:49.946Z,1.60
2023-05-06T01:37:28.905Z,1.63
2023-05-06T01:39:59.922Z,2.00
2023-05-06T01:42:27.587Z,1.73
2023-05-06T01:44:56.819Z,1.90
2023-05-06T01:47:24.288Z,1.97
2023-05-06T01:49:51.209Z,2.10
2023-05-06T01:52:18.163Z,2.40
2023-05-06T01:54:44.806Z,2.27
2023-05-06T01:57:11.463Z,2.50
2023-05-06T01:59:38.122Z,2.30
2023-05-06T02:02:04.863Z,1.93
2023-05-06T02:04:32.410Z,1.67
2023-05-06T02:06:59.253Z,1.53
2023-05-06T02:09:26.073Z,1.70
2023-05-06T02:11:57.714Z,1.90
2023-05-06T02:14:24.924Z,2.10
2023-05-06T02:16:52.254Z,3.10
2023-05-06T02:19:20.633Z,3.20
2023-05-06T02:21:47.498Z,2.23
2023-05-06T02:24:14.171Z,2.27
2023-05-06T02:26:40.842Z,1.70
2023-05-06T02:29:07.508Z,1.70
2023-05-06T02:31:34.648Z,1.83
2023-05-06T02:34:01.318Z,2.20
2023-05-06T02:36:28.914Z,2.03
2023-05-06T02:38:55.952Z,4.20
2023-05-06T02:41:22.625Z,3.93
2023-05-06T02:43:49.816Z,3.30
2023-05-06T02:46:16.556Z,3.53
2023-05-06T02:48:43.264Z,4.20
2023-05-06T02:51:10.029Z,3.53
2023-05-06T02:53:36.717Z,4.10
2023-05-06T02:56:03.517Z,3.20
2023-05-06T02:58:30.274Z,2.90
2023-05-06T03:00:57.002Z,3.10
2023-05-06T03:03:23.746Z,2.90
2023-05-06T03:05:50.424Z,2.37
2023-05-06T03:08:17.057Z,2.30
2023-05-06T03:10:43.703Z,2.90
2023-05-06T03:13:10.446Z,2.73
2023-05-06T03:15:37.373Z,5.37
2023-05-06T03:18:04.157Z,4.73
2023-05-06T03:20:30.836Z,4.83
2023-05-06T03:22:59.631Z,5.00
2023-05-06T03:25:26.406Z,4.27
2023-05-06T03:27:53.674Z,4.60
2023-05-06T03:30:22.529Z,4.93
2023-05-06T03:32:51.705Z,3.70
2023-05-06T03:35:25.670Z,3.77
2023-05-06T03:37:56.230Z,3.80
2023-05-06T03:40:25.556Z,3.97
2023-05-06T03:42:52.877Z,3.80
2023-05-06T03:45:21.299Z,3.37
2023-05-06T03:47:48.649Z,3.30
2023-05-06T03:50:16.592Z,3.47
2023-05-06T03:52:43.556Z,3.13
2023-05-06T03:55:10.451Z,3.20
2023-05-06T03:57:38.873Z,2.97
2023-05-06T04:00:07.000Z,3.30
2023-05-06T04:02:43.473Z,2.80
2023-05-06T04:05:16.221Z,3.33
2023-05-06T04:07:44.254Z,3.10
2023-05-06T04:10:11.340Z,2.87
2023-05-06T04:12:39.092Z,3.20
2023-05-06T04:15:07.782Z,3.73
2023-05-06T04:17:34.950Z,3.60
2023-05-06T04:20:11.456Z,3.40
2023-05-06T04:22:39.171Z,3.50
2023-05-06T04:25:07.095Z,3.77
2023-05-06T04:27:35.461Z,3.47
2023-05-06T04:30:04.548Z,3.80
2023-05-06T04:32:34.007Z,4.00
2023-05-06T04:35:01.619Z,3.67
2023-05-06T04:37:28.433Z,3.37
2023-05-06T04:40:06.196Z,4.07
2023-05-06T04:42:35.500Z,4.77
2023-05-06T04:45:09.676Z,4.33
2023-05-06T04:47:37.870Z,4.27
2023-05-06T04:50:05.875Z,4.37
2023-05-06T04:52:32.702Z,5.53
2023-05-06T04:54:59.542Z,4.67
2023-05-06T04:57:26.472Z,5.13
2023-05-06T04:59:54.903Z,7.20
2023-05-06T05:02:22.172Z,6.83
2023-05-06T05:04:49.922Z,13.93
2023-05-06T05:07:16.678Z,16.47
2023-05-06T05:09:43.347Z,11.30
2023-05-06T05:12:10.036Z,9.80
2023-05-06T05:14:41.059Z,7.30
2023-05-06T05:17:10.044Z,6.70
2023-05-06T05:19:37.950Z,6.47
2023-05-06T05:22:04.850Z,6.13
2023-05-06T05:24:33.051Z,5.97
2023-05-06T05:26:59.685Z,5.70
2023-05-06T05:29:26.608Z,7.10
2023-05-06T05:31:54.210Z,5.30
2023-05-06T05:34:21.190Z,6.97
2023-05-06T05:36:49.179Z,6.43
2023-05-06T05:39:15.986Z,6.93
2023-05-06T05:41:45.693Z,6.93
2023-05-06T05:44:12.916Z,7.90
2023-05-06T05:46:41.351Z,7.13
2023-05-06T05:49:08.744Z,7.23
2023-05-06T05:51:35.726Z,7.70
2023-05-06T05:54:04.748Z,7.20
2023-05-06T05:56:31.687Z,7.10
2023-05-06T05:58:58.603Z,6.67
2023-05-06T06:01:25.680Z,6.63
2023-05-06T06:03:54.426Z,6.97
2023-05-06T06:06:22.238Z,5.83
2023-05-06T06:08:49.866Z,7.07
2023-05-06T06:11:17.002Z,7.20
2023-05-06T06:13:44.403Z,6.33
2023-05-06T06:16:11.399Z,7.27
2023-05-06T06:18:38.139Z,7.00
2023-05-06T06:21:04.987Z,6.40
2023-05-06T06:23:31.662Z,6.60
2023-05-06T06:25:58.795Z,6.27
2023-05-06T06:28:26.108Z,6.33
2023-05-06T06:30:53.311Z,6.70
2023-05-06T06:33:19.972Z,6.30
2023-05-06T06:35:46.623Z,5.90
2023-05-06T06:38:13.275Z,6.40
2023-05-06T06:40:39.859Z,6.27
2023-05-06T06:43:06.474Z,6.53
2023-05-06T06:45:54.866Z,6.70
2023-05-06T06:48:21.624Z,6.17
2023-05-06T06:50:48.393Z,6.03
2023-05-06T06:53:15.032Z,5.77
2023-05-06T06:55:45.598Z,6.57
2023-05-06T06:58:12.396Z,6.60
2023-05-06T07:00:39.123Z,6.00
2023-05-06T07:03:05.864Z,6.40
2023-05-06T07:05:32.501Z,5.23
2023-05-06T07:07:59.243Z,5.60
2023-05-06T07:10:25.975Z,5.13
2023-05-06T07:12:52.850Z,5.57
2023-05-06T07:15:19.502Z,6.50
2023-05-06T07:17:46.657Z,6.50
2023-05-06T07:20:13.393Z,5.57
2023-05-06T07:22:41.322Z,5.40
2023-05-06T07:25:08.639Z,5.20
2023-05-06T07:27:35.411Z,5.60
2023-05-06T07:30:02.288Z,4.93
2023-05-06T07:32:29.029Z,5.30
2023-05-06T07:34:55.779Z,5.67
2023-05-06T07:37:22.493Z,5.13
2023-05-06T07:39:49.192Z,4.90
2023-05-06T07:42:15.824Z,5.40
2023-05-06T07:44:42.560Z,5.53
2023-05-06T07:47:09.524Z,5.60
2023-05-06T07:49:36.327Z,5.20
2023-05-06T07:52:04.065Z,5.30
2023-05-06T07:54:31.716Z,5.00
2023-05-06T07:56:58.715Z,4.90
2023-05-06T07:59:25.445Z,5.20
2023-05-06T08:01:52.181Z,5.00
2023-05-06T08:04:18.941Z,4.77
2023-05-06T08:06:45.828Z,4.77
2023-05-06T08:09:16.941Z,4.10
2023-05-06T08:11:46.520Z,4.27
2023-05-06T08:14:13.190Z,4.00
2023-05-06T08:16:39.931Z,4.00
2023-05-06T08:19:06.647Z,3.70
2023-05-06T08:21:33.245Z,3.90
2023-05-06T08:23:59.891Z,4.00
2023-05-06T08:26:26.542Z,3.90
2023-05-06T08:28:53.176Z,3.60
2023-05-06T08:31:19.858Z,3.30
2023-05-06T08:33:46.596Z,3.10
2023-05-06T08:36:13.292Z,3.50
2023-05-06T08:38:39.929Z,2.90
2023-05-06T08:41:09.553Z,2.72
2023-05-06T08:43:41.996Z,2.30
2023-05-06T08:46:09.062Z,2.25
2023-05-06T08:48:37.340Z,2.28
2023-05-06T08:51:04.262Z,2.40
2023-05-06T08:53:33.275Z,2.30
2023-05-06T08:56:06.355Z,2.08
2023-05-06T08:58:35.085Z,2.70
2023-05-06T09:01:03.296Z,2.33
2023-05-06T09:03:30.865Z,2.38
2023-05-06T09:05:58.193Z,2.20
2023-05-06T09:08:25.048Z,1.65
2023-05-06T09:10:51.742Z,2.20
2023-05-06T09:13:22.288Z,1.90
2023-05-06T09:15:49.542Z,1.92
2023-05-06T09:18:16.785Z,1.83
2023-05-06T09:20:48.899Z,1.90
2023-05-06T09:23:17.255Z,1.90
2023-05-06T09:25:46.150Z,1.80
2023-05-06T09:28:14.291Z,1.70
2023-05-06T09:30:42.776Z,1.90
2023-05-06T09:33:10.356Z,1.77
2023-05-06T09:35:38.122Z,1.70
2023-05-06T09:38:07.157Z,1.40
2023-05-06T09:40:38.735Z,1.40
2023-05-06T09:43:05.745Z,1.47
2023-05-06T09:45:32.910Z,1.10
2023-05-06T09:48:00.571Z,1.30
2023-05-06T09:50:27.622Z,1.30
2023-05-06T09:52:55.748Z,1.40
2023-05-06T09:55:23.691Z,1.50
2023-05-06T09:57:50.735Z,1.50
2023-05-06T10:00:17.730Z,1.75
2023-05-06T10:02:45.544Z,1.33
2023-05-06T10:05:13.268Z,1.58
2023-05-06T10:07:44.037Z,1.85
2023-05-06T10:10:14.262Z,1.38
2023-05-06T10:12:41.060Z,1.30
2023-05-06T10:15:08.442Z,1.30
2023-05-06T10:17:38.041Z,1.48
2023-05-06T10:20:09.120Z,1.20
2023-05-06T10:23:03.405Z,1.38
2023-05-06T10:25:42.532Z,1.38
2023-05-06T10:28:13.353Z,1.48
2023-05-06T10:30:58.056Z,1.30
2023-05-06T10:33:26.154Z,1.38
2023-05-06T10:35:58.575Z,1.40
2023-05-06T10:38:32.704Z,1.30
2023-05-06T10:41:00.544Z,1.23
2023-05-06T10:43:34.464Z,1.30
2023-05-06T10:46:09.123Z,1.40
2023-05-06T10:48:59.897Z,1.30
2023-05-06T10:51:28.466Z,1.20
2023-05-06T10:54:04.455Z,1.52
2023-05-06T10:56:51.143Z,1.20
2023-05-06T10:59:23.904Z,1.30
2023-05-06T11:01:57.403Z,1.80
2023-05-06T11:04:24.139Z,1.98
2023-05-06T11:06:53.015Z,1.30
2023-05-06T11:09:26.751Z,1.20
2023-05-06T11:12:04.614Z,1.50
2023-05-06T11:14:38.777Z,1.63
2023-05-06T11:17:07.636Z,1.50
2023-05-06T11:19:36.319Z,1.30
2023-05-06T11:22:07.222Z,1.88
2023-05-06T11:24:44.130Z,1.20
2023-05-06T11:27:11.290Z,1.20
2023-05-06T11:29:38.053Z,2.10
2023-05-06T11:32:22.204Z,1.48
2023-05-06T11:34:49.063Z,1.20
2023-05-06T11:37:25.806Z,3.95
2023-05-06T11:39:52.766Z,2.35
2023-05-06T11:42:26.935Z,3.20
2023-05-06T11:44:55.371Z,1.70
2023-05-06T11:47:23.473Z,1.48
2023-05-06T11:49:53.396Z,1.42
2023-05-06T11:52:23.375Z,2.25
2023-05-06T11:54:53.532Z,1.58
2023-05-06T11:57:20.752Z,1.75
2023-05-06T11:59:53.303Z,5.03
2023-05-06T12:02:20.529Z,2.17
2023-05-06T12:04:49.906Z,1.80
2023-05-06T12:07:17.225Z,1.70
2023-05-06T12:09:49.745Z,1.15
2023-05-06T12:12:19.943Z,1.42
2023-05-06T12:14:49.260Z,1.90
2023-05-06T12:17:16.569Z,2.15
2023-05-06T12:19:43.276Z,1.80
2023-05-06T12:22:24.640Z,1.83
2023-05-06T12:24:51.515Z,1.55
2023-05-06T12:27:30.963Z,2.03
2023-05-06T12:29:57.588Z,1.90
2023-05-06T12:32:24.281Z,2.05
2023-05-06T12:34:50.931Z,1.60
2023-05-06T12:37:28.527Z,2.17
2023-05-06T12:39:58.486Z,1.63
2023-05-06T12:42:26.332Z,1.58
2023-05-06T12:44:52.987Z,1.50
2023-05-06T12:47:26.777Z,2.88
2023-05-06T12:49:55.796Z,3.95
2023-05-06T12:52:24.153Z,3.10
2023-05-06T12:54:54.787Z,1.88
2023-05-06T12:57:22.172Z,1.70
2023-05-06T12:59:50.216Z,1.43
2023-05-06T13:02:17.092Z,1.07
2023-05-06T13:04:45.253Z,1.23
2023-05-06T13:07:12.064Z,1.20
2023-05-06T13:09:38.759Z,1.03
2023-05-06T13:12:06.429Z,1.30
2023-05-06T13:14:33.072Z,1.10
2023-05-06T13:17:00.995Z,2.80
2023-05-06T13:19:32.955Z,1.70
2023-05-06T13:22:01.298Z,1.38
2023-05-06T13:24:28.779Z,1.30
2023-05-06T13:26:56.831Z,1.20
2023-05-06T13:29:23.746Z,1.40
2023-05-06T13:31:50.975Z,1.30
2023-05-06T13:34:17.872Z,1.27
2023-05-06T13:36:44.565Z,1.33
2023-05-06T13:39:11.251Z,1.20
2023-05-06T13:41:37.958Z,1.50
2023-05-06T13:44:04.966Z,1.50
2023-05-06T13:46:31.755Z,1.40
2023-05-06T13:48:58.454Z,1.10
2023-05-06T13:51:29.841Z,1.30
2023-05-06T13:53:56.467Z,1.30
2023-05-06T13:56:23.139Z,1.10
2023-05-06T13:58:49.839Z,1.00
2023-05-06T14:01:16.587Z,1.20
2023-05-06T14:03:43.263Z,1.23
2023-05-06T14:06:09.890Z,1.10
2023-05-06T14:08:36.507Z,2.28
2023-05-06T14:11:03.202Z,1.10
2023-05-06T14:13:32.335Z,1.02
2023-05-06T14:15:59.838Z,1.10
2023-05-06T14:18:27.294Z,1.65
2023-05-06T14:20:54.470Z,1.55
2023-05-06T14:23:21.078Z,1.20
2023-05-06T14:25:48.175Z,1.00
2023-05-06T14:28:15.597Z,1.10
2023-05-06T14:30:42.529Z,0.90
2023-05-06T14:33:10.028Z,0.90
2023-05-06T14:35:41.273Z,1.10
2023-05-06T14:38:08.272Z,0.80
2023-05-06T14:40:36.784Z,0.80
2023-05-06T14:43:03.568Z,0.73
2023-05-06T14:45:30.587Z,0.90
2023-05-06T14:47:57.569Z,0.80
2023-05-06T14:50:24.315Z,0.80
2023-05-06T14:52:51.030Z,0.70
2023-05-06T14:55:18.134Z,0.60
2023-05-06T14:57:44.737Z,0.90
2023-05-06T15:00:12.660Z,0.80
2023-05-06T15:02:40.779Z,0.90
2023-05-06T15:05:09.759Z,0.80
2023-05-06T15:07:36.656Z,0.63
2023-05-06T15:10:04.135Z,0.80
2023-05-06T15:12:31.702Z,0.80
2023-05-06T15:14:58.417Z,0.80
2023-05-06T15:17:25.252Z,0.90
2023-05-06T15:19:52.098Z,0.70
2023-05-06T15:22:18.773Z,0.70
2023-05-06T15:24:45.467Z,0.77
2023-05-06T15:27:12.130Z,0.70
2023-05-06T15:29:39.388Z,0.82
2023-05-06T15:32:06.949Z,0.70
2023-05-06T15:34:33.678Z,0.77
2023-05-06T15:37:03.339Z,0.60
2023-05-06T15:39:37.142Z,0.70
2023-05-06T15:42:04.175Z,0.80
2023-05-06T15:44:32.357Z,0.90
2023-05-06T15:46:59.098Z,0.90
2023-05-06T15:49:49.288Z,0.90
2023-05-06T15:52:12.406Z,0.70
2023-05-06T15:54:39.986Z,0.70
2023-05-06T15:57:07.939Z,0.60
2023-05-06T15:59:34.603Z,0.70
2023-05-06T16:02:26.193Z,0.70
2023-05-06T16:04:48.147Z,0.60
2023-05-06T16:07:15.555Z,0.73
2023-05-06T16:09:42.786Z,0.80
2023-05-06T16:12:10.048Z,0.80
2023-05-06T16:14:36.814Z,0.80
2023-05-06T16:17:03.533Z,0.77
2023-05-06T16:19:32.024Z,0.90
2023-05-06T16:21:58.795Z,0.70
2023-05-06T16:24:25.494Z,0.70
2023-05-06T16:26:52.263Z,0.60
2023-05-06T16:29:20.530Z,0.60
2023-05-06T16:31:48.378Z,0.57
2023-05-06T16:34:15.312Z,0.60
2023-05-06T16:36:42.042Z,0.60
2023-05-06T16:39:08.673Z,0.63
2023-05-06T16:41:35.383Z,0.50
2023-05-06T16:44:02.006Z,0.60
2023-05-06T16:46:28.950Z,0.63
2023-05-06T16:48:55.831Z,0.60
2023-05-06T16:51:22.756Z,0.60
2023-05-06T16:53:49.519Z,0.50
2023-05-06T16:56:16.126Z,0.87
2023-05-06T16:58:42.963Z,0.47
2023-05-06T17:01:09.930Z,0.77
2023-05-06T17:03:40.308Z,0.70
2023-05-06T17:06:07.900Z,0.60
2023-05-06T17:08:36.470Z,0.60
2023-05-06T17:11:06.680Z,0.70
2023-05-06T17:13:33.952Z,0.60
2023-05-06T17:16:00.840Z,0.40
2023-05-06T17:18:27.572Z,0.70
2023-05-06T17:20:56.602Z,0.60
2023-05-06T17:23:24.422Z,0.80
2023-05-06T17:25:51.507Z,0.70
2023-05-06T17:28:18.831Z,1.47
2023-05-06T17:30:46.139Z,1.33
2023-05-06T17:33:12.957Z,1.30
2023-05-06T17:35:39.689Z,1.13
2023-05-06T17:38:06.445Z,0.70
2023-05-06T17:40:33.213Z,1.07
2023-05-06T17:43:00.538Z,0.87
2023-05-06T17:45:28.323Z,1.27
2023-05-06T17:47:56.396Z,1.20
2023-05-06T17:50:23.294Z,0.97
2023-05-06T17:52:52.176Z,0.90
2023-05-06T17:55:21.343Z,1.00
2023-05-06T17:57:48.388Z,0.90
2023-05-06T18:00:16.584Z,0.93
2023-05-06T18:02:43.950Z,1.10
2023-05-06T18:05:11.359Z,1.33
2023-05-06T18:07:38.504Z,1.27
2023-05-06T18:10:06.089Z,1.10
2023-05-06T18:12:32.718Z,1.00
2023-05-06T18:15:00.250Z,1.30
2023-05-06T18:17:26.920Z,1.30
2023-05-06T18:19:53.658Z,1.13
2023-05-06T18:22:20.344Z,1.50
2023-05-06T18:24:47.110Z,1.50
2023-05-06T18:27:13.733Z,1.90
2023-05-06T18:29:41.286Z,1.97
2023-05-06T18:32:08.186Z,12.97
2023-05-06T18:34:35.293Z,9.17
2023-05-06T18:37:01.961Z,5.67
2023-05-06T18:39:28.713Z,3.87
2023-05-06T18:41:55.537Z,4.70
2023-05-06T18:44:22.189Z,4.17
2023-05-06T18:46:48.919Z,3.70
2023-05-06T18:49:15.698Z,3.63
2023-05-06T18:51:42.441Z,2.80
2023-05-06T18:54:09.143Z,3.03
2023-05-06T18:56:36.910Z,3.50
2023-05-06T18:59:03.624Z,2.97
2023-05-06T19:01:30.389Z,3.40
2023-05-06T19:03:57.462Z,3.20
2023-05-06T19:06:24.114Z,3.57
2023-05-06T19:08:50.767Z,3.77
2023-05-06T19:11:21.163Z,3.47
2023-05-06T19:13:49.831Z,3.20
2023-05-06T19:16:16.581Z,3.30
2023-05-06T19:18:43.413Z,3.17
2023-05-06T19:21:11.064Z,3.00
2023-05-06T19:23:37.849Z,3.40
2023-05-06T19:26:06.662Z,2.70
2023-05-06T19:28:34.223Z,3.60
2023-05-06T19:31:01.451Z,4.57
2023-05-06T19:33:28.372Z,4.40
2023-05-06T19:35:54.974Z,4.00
2023-05-06T19:38:21.626Z,3.50
2023-05-06T19:40:48.283Z,2.77
2023-05-06T19:43:14.982Z,3.10
2023-05-06T19:45:41.954Z,2.70
2023-05-06T19:48:08.875Z,3.03
2023-05-06T19:50:36.560Z,3.30
2023-05-06T19:53:03.335Z,4.20
2023-05-06T19:55:30.808Z,4.13
2023-05-06T19:57:57.751Z,5.40
2023-05-06T20:00:27.134Z,4.63
2023-05-06T20:02:56.345Z,3.57
2023-05-06T20:05:23.496Z,2.20
2023-05-06T20:07:50.902Z,2.40
2023-05-06T20:10:17.645Z,1.80
2023-05-06T20:12:44.271Z,1.87
2023-05-06T20:15:11.540Z,1.30
2023-05-06T20:17:38.788Z,1.50
2023-05-06T20:20:09.741Z,1.70
2023-05-06T20:22:37.803Z,2.10
2023-05-06T20:25:13.024Z,1.70
2023-05-06T20:27:39.974Z,1.70
2023-05-06T20:30:08.057Z,1.50
2023-05-06T20:32:35.293Z,1.70
2023-05-06T20:35:02.225Z,1.90
2023-05-06T20:37:29.347Z,1.60
2023-05-06T20:39:56.432Z,2.83
2023-05-06T20:42:23.380Z,3.07
2023-05-06T20:44:53.301Z,4.43
2023-05-06T20:47:20.111Z,5.43
2023-05-06T20:49:46.847Z,7.03
2023-05-06T20:52:14.598Z,6.10
2023-05-06T20:54:45.289Z,5.07
2023-05-06T20:57:13.996Z,4.97
2023-05-06T20:59:41.026Z,5.30
2023-05-06T21:02:07.877Z,4.80
2023-05-06T21:04:34.640Z,4.80
2023-05-06T21:07:01.393Z,5.57
2023-05-06T21:09:28.867Z,4.40
2023-05-06T21:11:56.043Z,5.07
2023-05-06T21:14:24.757Z,5.20
2023-05-06T21:16:52.177Z,5.00
2023-05-06T21:19:19.467Z,4.87
2023-05-06T21:21:46.169Z,4.83
2023-05-06T21:24:13.063Z,4.80
2023-05-06T21:26:39.922Z,4.37
2023-05-06T21:29:06.620Z,4.37
2023-05-06T21:31:33.552Z,5.27
2023-05-06T21:34:00.392Z,5.10
2023-05-06T21:36:27.170Z,4.27
2023-05-06T21:39:08.485Z,4.17
2023-05-06T21:41:36.086Z,3.33
2023-05-06T21:44:07.032Z,3.90
2023-05-06T21:46:34.964Z,3.37
2023-05-06T21:49:01.878Z,3.67
2023-05-06T21:51:32.229Z,3.53
2023-05-06T21:53:59.217Z,3.33
2023-05-06T21:56:25.865Z,2.83
2023-05-06T21:58:55.588Z,3.17
2023-05-06T22:01:23.296Z,2.60
2023-05-06T22:03:50.123Z,3.10
2023-05-06T22:06:16.843Z,3.63
2023-05-06T22:08:43.648Z,3.10
2023-05-06T22:11:10.905Z,2.90
2023-05-06T22:13:37.581Z,3.00
2023-05-06T22:16:04.532Z,2.80
2023-05-06T22:18:32.064Z,2.63
2023-05-06T22:20:59.707Z,3.10
2023-05-06T22:23:27.984Z,3.00
2023-05-06T22:25:54.662Z,3.03
2023-05-06T22:28:21.645Z,3.10
2023-05-06T22:30:48.388Z,3.27
2023-05-06T22:33:15.076Z,2.73
2023-05-06T22:35:41.782Z,2.90
2023-05-06T22:38:08.495Z,3.20
2023-05-06T22:40:35.493Z,2.77
2023-05-06T22:43:03.215Z,2.90
2023-05-06T22:45:29.926Z,2.83
2023-05-06T22:47:56.840Z,3.10
2023-05-06T22:50:24.874Z,2.70
2023-05-06T22:52:51.562Z,2.60
2023-05-06T22:55:18.235Z,2.43
2023-05-06T22:57:45.181Z,2.90
2023-05-06T23:00:12.866Z,2.50
2023-05-06T23:02:39.800Z,2.50
2023-05-06T23:05:06.669Z,2.50
2023-05-06T23:07:33.324Z,2.10
2023-05-06T23:10:00.547Z,1.90
2023-05-06T23:12:28.043Z,2.20
2023-05-06T23:14:54.677Z,1.67
2023-05-06T23:17:21.360Z,1.70
2023-05-06T23:19:47.964Z,1.83
2023-05-06T23:22:14.699Z,1.80
2023-05-06T23:24:42.225Z,1.70
2023-05-06T23:27:08.982Z,2.17
2023-05-06T23:29:36.021Z,1.60
2023-05-06T23:32:02.851Z,1.60
2023-05-06T23:34:29.498Z,2.00
2023-05-06T23:36:56.550Z,1.60
2023-05-06T23:39:23.347Z,1.67
2023-05-06T23:41:50.097Z,1.60
2023-05-06T23:44:16.800Z,1.40
2023-05-06T23:46:43.462Z,1.40
2023-05-06T23:49:10.179Z,1.40
2023-05-06T23:51:36.868Z,1.47
2023-05-06T23:54:03.552Z,1.30
2023-05-06T23:56:30.208Z,1.47
2023-05-06T23:58:56.917Z,1.40
